createdAt,value
2022-11-29T00:00:06.983Z,35.80
2022-11-29T00:00:22.338Z,35.15
2022-11-29T00:00:58.331Z,36.47
2022-11-29T00:01:12.010Z,35.83
2022-11-29T00:01:26.593Z,36.22
2022-11-29T00:01:39.779Z,36.25
2022-11-29T00:01:53.541Z,35.50
2022-11-29T00:02:06.253Z,36.13
2022-11-29T00:02:19.013Z,36.15
2022-11-29T00:02:31.887Z,36.53
2022-11-29T00:02:44.548Z,36.45
2022-11-29T00:02:57.329Z,35.55
2022-11-29T00:03:10.074Z,35.00
2022-11-29T00:03:22.756Z,34.22
2022-11-29T00:03:35.479Z,34.17
2022-11-29T00:03:49.355Z,34.28
2022-11-29T00:04:02.498Z,35.20
2022-11-29T00:04:15.017Z,34.88
2022-11-29T00:04:27.866Z,34.35
2022-11-29T00:04:40.547Z,33.88
2022-11-29T00:04:53.235Z,34.25
2022-11-29T00:05:07.831Z,34.63
2022-11-29T00:05:20.381Z,35.15
2022-11-29T00:05:34.543Z,34.17
2022-11-29T00:05:47.075Z,33.28
2022-11-29T00:06:05.725Z,33.08
2022-11-29T00:06:20.581Z,34.45
2022-11-29T00:06:35.870Z,34.40
2022-11-29T00:06:48.580Z,33.78
2022-11-29T00:07:01.149Z,33.45
2022-11-29T00:07:14.243Z,33.55
2022-11-29T00:07:27.505Z,33.78
2022-11-29T00:07:40.396Z,33.38
2022-11-29T00:07:53.122Z,33.30
2022-11-29T00:08:07.804Z,33.55
2022-11-29T00:08:21.999Z,33.17
2022-11-29T00:08:35.357Z,32.47
2022-11-29T00:08:48.570Z,33.10
2022-11-29T00:09:06.269Z,33.55
2022-11-29T00:09:19.099Z,33.50
2022-11-29T00:09:31.704Z,33.22
2022-11-29T00:09:45.248Z,32.40
2022-11-29T00:09:57.788Z,31.73
2022-11-29T00:10:10.940Z,32.25
2022-11-29T00:10:23.572Z,33.42
2022-11-29T00:10:36.984Z,33.47
2022-11-29T00:10:49.972Z,32.75
2022-11-29T00:11:07.352Z,32.90
2022-11-29T00:11:37.476Z,33.63
2022-11-29T00:12:08.360Z,32.28
2022-11-29T00:12:21.977Z,32.05
2022-11-29T00:12:34.513Z,32.28
2022-11-29T00:12:48.646Z,31.98
2022-11-29T00:13:01.220Z,32.28
2022-11-29T00:13:13.804Z,32.65
2022-11-29T00:13:26.645Z,33.00
2022-11-29T00:13:39.624Z,33.50
2022-11-29T00:13:52.351Z,33.30
2022-11-29T00:14:05.739Z,32.78
2022-11-29T00:14:20.774Z,32.25
2022-11-29T00:14:33.400Z,32.17
2022-11-29T00:14:46.223Z,32.55
2022-11-29T00:14:59.106Z,32.83
2022-11-29T00:15:11.933Z,32.95
2022-11-29T00:15:24.480Z,32.55
2022-11-29T00:15:38.428Z,32.50
2022-11-29T00:15:51.017Z,32.28
2022-11-29T00:16:05.523Z,32.60
2022-11-29T00:16:18.571Z,33.25
2022-11-29T00:16:31.339Z,32.55
2022-11-29T00:16:44.302Z,32.08
2022-11-29T00:17:02.258Z,32.33
2022-11-29T00:17:15.315Z,31.85
2022-11-29T00:17:28.164Z,31.45
2022-11-29T00:17:40.804Z,31.17
2022-11-29T00:17:53.477Z,29.40
2022-11-29T00:18:07.465Z,29.25
2022-11-29T00:18:21.075Z,31.45
2022-11-29T00:18:34.311Z,31.90
2022-11-29T00:18:49.319Z,31.58
2022-11-29T00:19:02.506Z,31.60
2022-11-29T00:19:15.039Z,31.98
2022-11-29T00:19:28.195Z,31.88
2022-11-29T00:19:41.832Z,32.35
2022-11-29T00:19:54.451Z,31.83
2022-11-29T00:20:09.070Z,32.28
2022-11-29T00:20:21.811Z,32.80
2022-11-29T00:20:35.480Z,33.25
2022-11-29T00:20:47.992Z,33.08
2022-11-29T00:21:00.812Z,32.80
2022-11-29T00:21:13.383Z,32.40
2022-11-29T00:21:26.086Z,32.17
2022-11-29T00:21:38.687Z,32.10
2022-11-29T00:21:52.550Z,31.92
2022-11-29T00:22:05.356Z,32.03
2022-11-29T00:22:17.916Z,32.60
2022-11-29T00:22:30.543Z,33.10
2022-11-29T00:22:43.096Z,32.58
2022-11-29T00:22:56.652Z,32.50
2022-11-29T00:23:09.187Z,32.58
2022-11-29T00:23:21.861Z,31.95
2022-11-29T00:23:34.428Z,32.20
2022-11-29T00:23:46.975Z,32.78
2022-11-29T00:23:59.506Z,32.55
2022-11-29T00:24:12.277Z,32.88
2022-11-29T00:24:25.901Z,32.60
2022-11-29T00:24:38.463Z,32.42
2022-11-29T00:24:51.318Z,32.47
2022-11-29T00:25:04.678Z,32.63
2022-11-29T00:25:17.295Z,32.35
2022-11-29T00:25:29.970Z,32.42
2022-11-29T00:25:42.516Z,32.70
2022-11-29T00:25:55.058Z,32.90
2022-11-29T00:26:10.136Z,33.25
2022-11-29T00:26:22.727Z,32.58
2022-11-29T00:26:37.056Z,32.05
2022-11-29T00:26:49.762Z,31.80
2022-11-29T00:27:02.648Z,32.13
2022-11-29T00:27:16.246Z,32.15
2022-11-29T00:27:28.770Z,32.35
2022-11-29T00:27:41.295Z,32.50
2022-11-29T00:27:55.258Z,31.67
2022-11-29T00:28:07.770Z,31.30
2022-11-29T00:28:20.344Z,31.50
2022-11-29T00:28:33.301Z,31.55
2022-11-29T00:28:45.930Z,31.85
2022-11-29T00:28:59.536Z,31.77
2022-11-29T00:29:12.932Z,31.55
2022-11-29T00:29:25.573Z,30.85
2022-11-29T00:29:38.179Z,31.13
2022-11-29T00:29:50.716Z,30.98
2022-11-29T00:30:04.092Z,31.08
2022-11-29T00:30:17.405Z,31.52
2022-11-29T00:30:31.046Z,31.50
2022-11-29T00:30:43.664Z,31.58
2022-11-29T00:30:56.217Z,31.55
2022-11-29T00:31:15.245Z,30.95
2022-11-29T00:31:30.397Z,31.27
2022-11-29T00:31:43.766Z,31.85
2022-11-29T00:31:57.350Z,32.55
2022-11-29T00:32:10.084Z,32.65
2022-11-29T00:32:22.750Z,32.60
2022-11-29T00:32:36.154Z,32.22
2022-11-29T00:32:48.740Z,32.40
2022-11-29T00:33:03.143Z,31.73
2022-11-29T00:33:15.684Z,31.45
2022-11-29T00:33:28.309Z,31.52
2022-11-29T00:33:41.861Z,31.52
2022-11-29T00:33:56.439Z,31.40
2022-11-29T00:34:11.275Z,32.10
2022-11-29T00:34:23.920Z,32.63
2022-11-29T00:34:37.038Z,32.15
2022-11-29T00:34:50.620Z,31.48
2022-11-29T00:35:09.322Z,31.42
2022-11-29T00:35:22.392Z,31.48
2022-11-29T00:35:34.982Z,31.83
2022-11-29T00:35:47.526Z,32.85
2022-11-29T00:36:01.518Z,32.30
2022-11-29T00:36:15.014Z,31.77
2022-11-29T00:36:29.423Z,31.85
2022-11-29T00:36:42.038Z,31.35
2022-11-29T00:36:54.755Z,30.95
2022-11-29T00:37:07.548Z,31.13
2022-11-29T00:37:20.094Z,30.85
2022-11-29T00:37:32.661Z,31.02
2022-11-29T00:37:46.205Z,30.73
2022-11-29T00:37:58.982Z,31.15
2022-11-29T00:38:11.555Z,31.58
2022-11-29T00:38:24.186Z,32.15
2022-11-29T00:38:36.987Z,31.70
2022-11-29T00:38:49.832Z,31.50
2022-11-29T00:39:03.483Z,31.98
2022-11-29T00:39:17.198Z,31.17
2022-11-29T00:39:30.022Z,30.42
2022-11-29T00:39:42.564Z,30.77
2022-11-29T00:39:55.145Z,31.00
2022-11-29T00:40:08.952Z,31.88
2022-11-29T00:40:22.776Z,31.65
2022-11-29T00:40:35.332Z,31.48
2022-11-29T00:40:51.886Z,31.33
2022-11-29T00:41:04.902Z,31.65
2022-11-29T00:41:17.545Z,31.35
2022-11-29T00:41:30.134Z,30.45
2022-11-29T00:41:43.739Z,31.27
2022-11-29T00:41:56.477Z,32.15
2022-11-29T00:42:09.050Z,32.15
2022-11-29T00:42:21.661Z,31.73
2022-11-29T00:42:34.219Z,31.30
2022-11-29T00:42:46.789Z,31.27
2022-11-29T00:43:01.056Z,31.77
2022-11-29T00:43:14.610Z,32.33
2022-11-29T00:43:27.307Z,32.13
2022-11-29T00:43:40.114Z,30.88
2022-11-29T00:43:52.846Z,30.73
2022-11-29T00:44:05.523Z,31.83
2022-11-29T00:44:20.335Z,31.52
2022-11-29T00:44:34.384Z,31.10
2022-11-29T00:44:47.082Z,32.05
2022-11-29T00:44:59.752Z,31.50
2022-11-29T00:45:12.374Z,31.25
2022-11-29T00:45:24.992Z,31.13
2022-11-29T00:45:37.650Z,30.88
2022-11-29T00:45:50.305Z,31.17
2022-11-29T00:46:04.762Z,31.60
2022-11-29T00:46:18.385Z,31.63
2022-11-29T00:46:30.993Z,31.15
2022-11-29T00:46:43.558Z,31.15
2022-11-29T00:46:56.164Z,31.65
2022-11-29T00:47:08.710Z,32.40
2022-11-29T00:47:21.541Z,32.05
2022-11-29T00:47:35.134Z,31.15
2022-11-29T00:47:47.702Z,31.33
2022-11-29T00:48:00.400Z,32.10
2022-11-29T00:48:12.936Z,32.03
2022-11-29T00:48:25.575Z,31.25
2022-11-29T00:48:38.336Z,30.77
2022-11-29T00:48:51.922Z,30.95
2022-11-29T00:49:04.968Z,30.98
2022-11-29T00:49:18.027Z,31.00
2022-11-29T00:49:30.582Z,30.40
2022-11-29T00:49:43.330Z,28.50
2022-11-29T00:49:55.895Z,28.48
2022-11-29T00:50:08.905Z,29.05
2022-11-29T00:50:22.570Z,29.52
2022-11-29T00:50:35.168Z,30.35
2022-11-29T00:50:47.814Z,31.60
2022-11-29T00:51:00.862Z,31.83
2022-11-29T00:51:13.600Z,30.60
2022-11-29T00:51:26.257Z,31.02
2022-11-29T00:51:39.824Z,31.55
2022-11-29T00:51:52.703Z,31.63
2022-11-29T00:52:05.720Z,30.80
2022-11-29T00:52:18.375Z,30.55
2022-11-29T00:52:30.964Z,30.85
2022-11-29T00:52:43.753Z,30.95
2022-11-29T00:52:56.322Z,30.70
2022-11-29T00:53:08.856Z,30.67
2022-11-29T00:53:22.522Z,30.83
2022-11-29T00:53:36.196Z,31.85
2022-11-29T00:53:48.884Z,32.05
2022-11-29T00:54:01.522Z,31.42
2022-11-29T00:54:14.131Z,31.20
2022-11-29T00:54:26.749Z,30.70
2022-11-29T00:54:39.430Z,31.08
2022-11-29T00:54:52.064Z,31.25
2022-11-29T00:55:06.511Z,31.30
2022-11-29T00:55:19.126Z,30.75
2022-11-29T00:55:31.672Z,30.75
2022-11-29T00:55:44.404Z,31.02
2022-11-29T00:55:56.993Z,30.88
2022-11-29T00:56:11.284Z,31.23
2022-11-29T00:56:24.452Z,30.67
2022-11-29T00:56:38.090Z,30.83
2022-11-29T00:56:50.675Z,30.80
2022-11-29T00:57:03.195Z,31.25
2022-11-29T00:57:15.724Z,31.27
2022-11-29T00:57:28.274Z,31.33
2022-11-29T00:57:40.998Z,31.70
2022-11-29T00:57:54.508Z,31.50
2022-11-29T00:58:08.470Z,30.52
2022-11-29T00:58:21.312Z,30.83
2022-11-29T00:58:34.229Z,30.58
2022-11-29T00:58:48.546Z,30.25
2022-11-29T00:59:02.072Z,30.50
2022-11-29T00:59:14.649Z,30.90
2022-11-29T00:59:27.198Z,31.27
2022-11-29T00:59:39.760Z,30.90
2022-11-29T00:59:52.307Z,30.55
2022-11-29T01:00:06.438Z,30.17
2022-11-29T01:00:20.506Z,29.00
2022-11-29T01:00:33.097Z,28.63
2022-11-29T01:00:45.982Z,29.83
2022-11-29T01:00:58.956Z,31.33
2022-11-29T01:01:11.830Z,30.83
2022-11-29T01:01:24.610Z,31.70
2022-11-29T01:01:38.270Z,32.75
2022-11-29T01:01:50.912Z,32.75
2022-11-29T01:02:03.634Z,32.53
2022-11-29T01:02:16.338Z,31.75
2022-11-29T01:02:29.007Z,31.85
2022-11-29T01:02:41.759Z,32.67
2022-11-29T01:02:55.436Z,32.40
2022-11-29T01:03:08.000Z,31.02
2022-11-29T01:03:20.758Z,30.00
2022-11-29T01:03:33.349Z,29.17
2022-11-29T01:03:45.964Z,29.45
2022-11-29T01:04:01.494Z,30.85
2022-11-29T01:04:14.240Z,31.92
2022-11-29T01:04:26.817Z,31.95
2022-11-29T01:04:39.407Z,31.92
2022-11-29T01:04:51.993Z,31.83
2022-11-29T01:05:05.088Z,31.63
2022-11-29T01:05:18.120Z,31.23
2022-11-29T01:05:31.558Z,31.15
2022-11-29T01:05:45.172Z,31.25
2022-11-29T01:06:01.183Z,31.45
2022-11-29T01:06:15.440Z,31.98
2022-11-29T01:06:28.234Z,31.98
2022-11-29T01:06:40.816Z,31.25
2022-11-29T01:06:53.639Z,31.23
2022-11-29T01:07:07.192Z,31.17
2022-11-29T01:07:19.757Z,31.77
2022-11-29T01:07:32.346Z,32.17
2022-11-29T01:07:44.972Z,31.60
2022-11-29T01:07:57.857Z,31.13
2022-11-29T01:08:11.516Z,31.08
2022-11-29T01:08:24.054Z,31.33
2022-11-29T01:08:37.538Z,31.27
2022-11-29T01:08:51.306Z,31.15
2022-11-29T01:09:04.503Z,31.30
2022-11-29T01:09:17.096Z,32.08
2022-11-29T01:09:29.932Z,32.35
2022-11-29T01:09:42.545Z,32.33
2022-11-29T01:09:55.088Z,32.53
2022-11-29T01:10:08.547Z,32.15
2022-11-29T01:10:22.168Z,31.85
2022-11-29T01:10:34.858Z,31.95
2022-11-29T01:10:47.474Z,32.08
2022-11-29T01:11:05.575Z,32.00
2022-11-29T01:11:22.922Z,32.72
2022-11-29T01:11:35.956Z,33.17
2022-11-29T01:11:50.330Z,33.55
2022-11-29T01:12:02.929Z,33.08
2022-11-29T01:12:15.543Z,32.78
2022-11-29T01:12:28.197Z,33.30
2022-11-29T01:12:40.858Z,32.33
2022-11-29T01:12:53.573Z,32.13
2022-11-29T01:13:08.932Z,31.88
2022-11-29T01:13:21.458Z,32.42
2022-11-29T01:13:34.402Z,32.13
2022-11-29T01:13:48.713Z,32.35
2022-11-29T01:14:02.753Z,33.05
2022-11-29T01:14:15.441Z,32.88
2022-11-29T01:14:28.172Z,32.65
2022-11-29T01:14:40.732Z,32.97
2022-11-29T01:14:53.352Z,32.72
2022-11-29T01:15:07.633Z,33.03
2022-11-29T01:15:20.267Z,32.28
2022-11-29T01:15:34.032Z,32.15
2022-11-29T01:15:46.616Z,32.63
2022-11-29T01:15:59.415Z,32.78
2022-11-29T01:16:13.544Z,32.85
2022-11-29T01:16:27.383Z,33.20
2022-11-29T01:16:40.123Z,33.58
2022-11-29T01:16:53.696Z,33.40
2022-11-29T01:17:06.404Z,32.95
2022-11-29T01:17:19.005Z,33.05
2022-11-29T01:17:31.675Z,33.15
2022-11-29T01:17:44.327Z,32.80
2022-11-29T01:17:56.933Z,33.30
2022-11-29T01:18:10.496Z,33.25
2022-11-29T01:18:23.592Z,32.88
2022-11-29T01:18:37.264Z,32.47
2022-11-29T01:18:49.860Z,32.88
2022-11-29T01:19:02.834Z,33.47
2022-11-29T01:19:15.494Z,33.38
2022-11-29T01:19:28.124Z,33.33
2022-11-29T01:19:45.242Z,33.97
2022-11-29T01:20:01.914Z,34.00
2022-11-29T01:20:14.857Z,32.92
2022-11-29T01:20:27.652Z,32.83
2022-11-29T01:20:40.210Z,33.08
2022-11-29T01:20:57.916Z,33.65
2022-11-29T01:21:14.878Z,33.53
2022-11-29T01:21:27.610Z,34.13
2022-11-29T01:21:40.212Z,33.92
2022-11-29T01:21:52.764Z,33.40
2022-11-29T01:22:05.367Z,33.30
2022-11-29T01:22:18.602Z,33.30
2022-11-29T01:22:31.503Z,32.55
2022-11-29T01:22:44.095Z,33.60
2022-11-29T01:22:57.667Z,34.65
2022-11-29T01:23:10.250Z,33.58
2022-11-29T01:23:22.771Z,32.92
2022-11-29T01:23:36.848Z,33.05
2022-11-29T01:23:50.502Z,33.17
2022-11-29T01:24:03.255Z,33.30
2022-11-29T01:24:15.839Z,34.08
2022-11-29T01:24:30.912Z,34.28
2022-11-29T01:24:43.703Z,33.78
2022-11-29T01:24:56.504Z,33.60
2022-11-29T01:25:11.256Z,33.92
2022-11-29T01:25:23.914Z,33.92
2022-11-29T01:25:36.520Z,33.83
2022-11-29T01:25:56.547Z,33.40
2022-11-29T01:26:13.218Z,32.75
2022-11-29T01:26:28.806Z,32.58
2022-11-29T01:26:41.394Z,33.13
2022-11-29T01:26:54.223Z,33.92
2022-11-29T01:27:06.784Z,33.03
2022-11-29T01:27:19.359Z,32.38
2022-11-29T01:27:32.513Z,32.50
2022-11-29T01:27:45.476Z,33.55
2022-11-29T01:27:59.027Z,34.20
2022-11-29T01:28:12.950Z,34.15
2022-11-29T01:28:25.548Z,34.03
2022-11-29T01:28:39.125Z,33.63
2022-11-29T01:28:53.627Z,32.97
2022-11-29T01:29:07.843Z,32.75
2022-11-29T01:29:20.447Z,33.90
2022-11-29T01:29:33.006Z,34.35
2022-11-29T01:29:45.541Z,34.65
2022-11-29T01:29:58.184Z,34.53
2022-11-29T01:30:11.499Z,34.53
2022-11-29T01:30:24.160Z,33.90
2022-11-29T01:30:38.070Z,34.58
2022-11-29T01:30:50.737Z,35.47
2022-11-29T01:31:08.685Z,35.20
2022-11-29T01:31:23.640Z,34.78
2022-11-29T01:31:36.534Z,35.80
2022-11-29T01:31:49.107Z,35.53
2022-11-29T01:32:01.675Z,34.85
2022-11-29T01:32:14.469Z,34.50
2022-11-29T01:32:28.125Z,35.53
2022-11-29T01:32:40.653Z,35.83
2022-11-29T01:32:53.384Z,35.03
2022-11-29T01:33:05.962Z,34.20
2022-11-29T01:33:18.531Z,33.45
2022-11-29T01:33:31.139Z,33.60
2022-11-29T01:33:43.801Z,33.95
2022-11-29T01:33:58.921Z,33.58
2022-11-29T01:34:11.592Z,32.42
2022-11-29T01:34:24.162Z,32.38
2022-11-29T01:34:37.512Z,33.33
2022-11-29T01:34:50.326Z,33.75
2022-11-29T01:35:02.933Z,34.08
2022-11-29T01:35:15.778Z,34.15
2022-11-29T01:35:29.333Z,34.35
2022-11-29T01:35:47.548Z,34.80
2022-11-29T01:36:00.405Z,34.63
2022-11-29T01:36:14.462Z,34.63
2022-11-29T01:36:29.143Z,34.05
2022-11-29T01:36:41.718Z,34.20
2022-11-29T01:36:54.242Z,34.97
2022-11-29T01:37:06.832Z,34.35
2022-11-29T01:37:19.370Z,34.10
2022-11-29T01:37:33.423Z,34.65
2022-11-29T01:37:45.977Z,35.50
2022-11-29T01:37:58.534Z,35.03
2022-11-29T01:38:11.120Z,34.40
2022-11-29T01:38:23.796Z,34.22
2022-11-29T01:38:36.865Z,34.60
2022-11-29T01:38:49.562Z,34.25
2022-11-29T01:39:05.435Z,34.42
2022-11-29T01:39:18.059Z,35.17
2022-11-29T01:39:30.913Z,34.90
2022-11-29T01:39:43.609Z,34.78
2022-11-29T01:39:56.468Z,34.45
2022-11-29T01:40:09.795Z,34.42
2022-11-29T01:40:22.573Z,34.08
2022-11-29T01:40:35.214Z,34.60
2022-11-29T01:40:57.617Z,34.38
2022-11-29T01:41:16.000Z,34.67
2022-11-29T01:41:31.318Z,34.95
2022-11-29T01:41:43.857Z,35.28
2022-11-29T01:41:56.660Z,35.10
2022-11-29T01:42:10.741Z,34.15
2022-11-29T01:42:23.605Z,34.67
2022-11-29T01:42:37.138Z,35.70
2022-11-29T01:42:49.709Z,35.58
2022-11-29T01:43:02.253Z,35.45
2022-11-29T01:43:18.457Z,35.22
2022-11-29T01:43:31.904Z,35.08
2022-11-29T01:43:57.059Z,35.30
2022-11-29T01:44:44.176Z,35.55
2022-11-29T01:45:08.187Z,36.42
2022-11-29T01:45:23.844Z,36.28
2022-11-29T01:45:38.435Z,36.72
2022-11-29T01:45:51.297Z,36.08
2022-11-29T01:46:05.712Z,36.72
2022-11-29T01:46:18.311Z,37.35
2022-11-29T01:46:33.544Z,36.08
2022-11-29T01:46:47.197Z,35.08
2022-11-29T01:46:59.772Z,35.33
2022-11-29T01:47:12.886Z,35.70
2022-11-29T01:47:25.442Z,36.08
2022-11-29T01:47:43.910Z,36.28
2022-11-29T01:47:59.125Z,36.08
2022-11-29T01:48:14.419Z,35.75
2022-11-29T01:48:31.165Z,35.35
2022-11-29T01:48:43.992Z,35.95
2022-11-29T01:49:00.509Z,36.70
2022-11-29T01:49:18.456Z,36.53
2022-11-29T01:49:35.840Z,36.05
2022-11-29T01:49:50.085Z,36.17
2022-11-29T01:50:03.207Z,36.22
2022-11-29T01:50:16.472Z,35.15
2022-11-29T01:50:29.040Z,34.80
2022-11-29T01:50:42.604Z,35.15
2022-11-29T01:50:59.449Z,36.33
2022-11-29T01:51:13.157Z,36.28
2022-11-29T01:51:28.153Z,35.92
2022-11-29T01:51:44.856Z,35.40
2022-11-29T01:52:02.194Z,35.72
2022-11-29T01:52:19.642Z,36.90
2022-11-29T01:52:33.384Z,36.28
2022-11-29T01:52:47.756Z,35.58
2022-11-29T01:53:00.772Z,35.28
2022-11-29T01:53:15.178Z,35.08
2022-11-29T01:53:28.480Z,34.95
2022-11-29T01:53:41.292Z,35.72
2022-11-29T01:53:55.256Z,36.28
2022-11-29T01:54:11.128Z,35.40
2022-11-29T01:54:23.901Z,36.50
2022-11-29T01:54:41.019Z,37.15
2022-11-29T01:54:58.519Z,37.28
2022-11-29T01:55:11.488Z,37.15
2022-11-29T01:55:24.359Z,36.47
2022-11-29T01:55:41.666Z,35.70
2022-11-29T01:56:01.609Z,35.40
2022-11-29T01:56:16.108Z,35.20
2022-11-29T01:56:30.454Z,35.63
2022-11-29T01:56:45.954Z,35.42
2022-11-29T01:56:59.682Z,36.28
2022-11-29T01:57:13.432Z,37.30
2022-11-29T01:57:27.069Z,36.92
2022-11-29T01:57:42.681Z,36.08
2022-11-29T01:57:55.270Z,36.67
2022-11-29T01:58:09.030Z,37.38
2022-11-29T01:58:23.579Z,37.00
2022-11-29T01:58:36.592Z,37.30
2022-11-29T01:58:49.157Z,37.65
2022-11-29T01:59:04.452Z,37.65
2022-11-29T01:59:21.618Z,36.58
2022-11-29T01:59:36.555Z,36.58
2022-11-29T01:59:52.034Z,36.25
2022-11-29T02:00:08.868Z,35.72
2022-11-29T02:00:21.796Z,35.92
2022-11-29T02:00:35.012Z,37.08
2022-11-29T02:00:48.412Z,37.88
2022-11-29T02:01:02.555Z,35.70
2022-11-29T02:01:15.668Z,34.38
2022-11-29T02:01:28.406Z,35.15
2022-11-29T02:01:41.253Z,35.78
2022-11-29T02:01:59.416Z,35.78
2022-11-29T02:02:15.190Z,35.42
2022-11-29T02:02:33.340Z,36.15
2022-11-29T02:02:52.052Z,36.10
2022-11-29T02:03:10.309Z,35.70
2022-11-29T02:03:22.898Z,35.88
2022-11-29T02:03:35.503Z,35.75
2022-11-29T02:03:48.128Z,35.90
2022-11-29T02:04:00.816Z,36.00
2022-11-29T02:04:16.155Z,35.50
2022-11-29T02:04:31.523Z,35.45
2022-11-29T02:04:45.867Z,35.15
2022-11-29T02:04:59.870Z,35.42
2022-11-29T02:05:14.797Z,36.30
2022-11-29T02:05:28.048Z,36.63
2022-11-29T02:05:44.194Z,36.42
2022-11-29T02:05:56.756Z,36.17
2022-11-29T02:06:09.720Z,35.55
2022-11-29T02:06:23.014Z,35.47
2022-11-29T02:06:36.344Z,35.40
2022-11-29T02:06:49.027Z,34.75
2022-11-29T02:07:02.934Z,33.47
2022-11-29T02:07:16.105Z,33.33
2022-11-29T02:07:29.267Z,33.88
2022-11-29T02:07:44.823Z,34.05
2022-11-29T02:08:01.287Z,34.88
2022-11-29T02:08:17.129Z,35.40
2022-11-29T02:08:39.898Z,34.92
2022-11-29T02:08:53.481Z,34.40
2022-11-29T02:09:16.579Z,33.38
2022-11-29T02:09:30.158Z,33.67
2022-11-29T02:09:42.834Z,34.42
2022-11-29T02:09:55.407Z,35.45
2022-11-29T02:10:08.817Z,35.55
2022-11-29T02:10:28.684Z,34.65
2022-11-29T02:10:55.920Z,32.47
2022-11-29T02:11:40.997Z,33.55
2022-11-29T02:12:17.065Z,34.28
2022-11-29T02:12:40.059Z,34.53
2022-11-29T02:13:01.455Z,33.20
2022-11-29T02:13:24.872Z,34.22
2022-11-29T02:13:51.085Z,35.00
2022-11-29T02:14:17.244Z,34.08
2022-11-29T02:14:54.084Z,34.42
2022-11-29T02:15:19.444Z,35.17
2022-11-29T02:15:41.702Z,34.25
2022-11-29T02:16:02.467Z,35.15
2022-11-29T02:16:25.621Z,34.30
2022-11-29T02:16:55.054Z,34.67
2022-11-29T02:17:17.375Z,33.60
2022-11-29T02:17:36.247Z,34.38
2022-11-29T02:18:02.618Z,35.85
2022-11-29T02:18:22.620Z,34.35
2022-11-29T02:18:45.521Z,34.05
2022-11-29T02:19:12.692Z,35.75
2022-11-29T02:19:57.891Z,34.95
2022-11-29T02:20:35.687Z,34.25
2022-11-29T02:21:16.521Z,34.13
2022-11-29T02:21:41.692Z,34.05
2022-11-29T02:22:03.500Z,33.55
2022-11-29T02:22:22.735Z,34.92
2022-11-29T02:22:41.663Z,34.55
2022-11-29T02:23:00.694Z,34.38
2022-11-29T02:23:56.518Z,34.70
2022-11-29T02:24:34.456Z,33.97
2022-11-29T02:25:02.750Z,33.85
2022-11-29T02:25:40.181Z,33.42
2022-11-29T02:26:03.781Z,34.03
2022-11-29T02:26:30.830Z,33.42
2022-11-29T02:27:12.568Z,33.97
2022-11-29T02:28:14.870Z,33.95
2022-11-29T02:28:45.047Z,33.38
2022-11-29T02:29:15.937Z,32.95
2022-11-29T02:29:46.958Z,33.78
2022-11-29T02:30:20.792Z,34.88
2022-11-29T02:30:55.370Z,34.92
2022-11-29T02:31:38.179Z,34.63
2022-11-29T02:32:49.009Z,33.08
2022-11-29T02:33:37.841Z,34.53
2022-11-29T02:34:28.578Z,33.08
2022-11-29T02:34:58.418Z,33.40
2022-11-29T02:35:23.279Z,34.05
2022-11-29T02:35:56.212Z,33.10
2022-11-29T02:36:40.668Z,33.13
2022-11-29T02:37:14.768Z,34.05
2022-11-29T02:37:42.845Z,33.72
2022-11-29T02:38:22.007Z,33.22
2022-11-29T02:38:58.939Z,33.03
2022-11-29T02:39:49.551Z,33.05
2022-11-29T02:40:17.021Z,33.25
2022-11-29T02:40:46.148Z,33.70
2022-11-29T02:41:19.594Z,34.40
2022-11-29T02:41:50.733Z,34.38
2022-11-29T02:42:25.659Z,34.10
2022-11-29T02:43:04.433Z,33.95
2022-11-29T02:43:32.996Z,32.88
2022-11-29T02:44:25.816Z,33.42
2022-11-29T02:44:58.472Z,34.35
2022-11-29T02:45:16.905Z,33.88
2022-11-29T02:45:53.673Z,34.35
2022-11-29T02:46:21.987Z,34.13
2022-11-29T02:46:49.808Z,33.53
2022-11-29T02:47:15.645Z,33.47
2022-11-29T02:47:37.808Z,33.35
2022-11-29T02:48:01.495Z,33.10
2022-11-29T02:48:33.243Z,32.90
2022-11-29T02:48:55.595Z,34.25
2022-11-29T02:49:16.683Z,34.20
2022-11-29T02:49:45.788Z,33.80
2022-11-29T02:50:19.380Z,33.85
2022-11-29T02:50:39.037Z,33.53
2022-11-29T02:50:58.055Z,33.53
2022-11-29T02:51:16.045Z,34.05
2022-11-29T02:51:39.336Z,33.20
2022-11-29T02:51:58.272Z,32.53
2022-11-29T02:52:17.579Z,32.47
2022-11-29T02:52:36.422Z,32.60
2022-11-29T02:53:00.580Z,32.65
2022-11-29T02:53:18.742Z,32.15
2022-11-29T02:53:38.320Z,30.90
2022-11-29T02:53:56.077Z,31.23
2022-11-29T02:54:17.459Z,32.35
2022-11-29T02:54:40.098Z,33.17
2022-11-29T02:54:58.562Z,32.25
2022-11-29T02:55:20.053Z,32.03
2022-11-29T02:55:38.604Z,33.17
2022-11-29T02:56:00.055Z,34.20
2022-11-29T02:56:23.357Z,32.78
2022-11-29T02:56:42.229Z,33.40
2022-11-29T02:56:59.702Z,33.28
2022-11-29T02:57:23.928Z,32.75
2022-11-29T02:57:43.422Z,33.45
2022-11-29T02:58:02.283Z,33.38
2022-11-29T02:58:26.369Z,34.00
2022-11-29T02:58:47.180Z,33.38
2022-11-29T02:59:05.346Z,33.00
2022-11-29T02:59:34.839Z,32.92
2022-11-29T02:59:58.239Z,33.85
2022-11-29T03:00:15.045Z,33.35
2022-11-29T03:00:28.508Z,34.05
2022-11-29T03:00:49.504Z,33.47
2022-11-29T03:01:10.634Z,34.20
2022-11-29T03:01:31.253Z,34.08
2022-11-29T03:01:53.437Z,34.80
2022-11-29T03:02:18.005Z,34.13
2022-11-29T03:02:36.823Z,32.97
2022-11-29T03:02:56.905Z,33.10
2022-11-29T03:03:19.439Z,33.53
2022-11-29T03:03:40.076Z,33.75
2022-11-29T03:04:02.848Z,34.35
2022-11-29T03:04:26.061Z,34.00
2022-11-29T03:04:45.606Z,33.70
2022-11-29T03:05:10.675Z,33.28
2022-11-29T03:05:29.862Z,33.10
2022-11-29T03:05:51.045Z,33.38
2022-11-29T03:06:13.821Z,32.78
2022-11-29T03:06:39.711Z,33.25
2022-11-29T03:07:01.869Z,30.70
2022-11-29T03:07:24.019Z,30.58
2022-11-29T03:07:45.267Z,32.40
2022-11-29T03:08:07.216Z,31.60
2022-11-29T03:08:32.015Z,31.85
2022-11-29T03:08:53.892Z,31.77
2022-11-29T03:09:12.562Z,31.08
2022-11-29T03:09:36.291Z,31.88
2022-11-29T03:09:57.679Z,32.22
2022-11-29T03:10:19.729Z,32.72
2022-11-29T03:10:39.424Z,32.83
2022-11-29T03:11:01.084Z,33.28
2022-11-29T03:11:20.633Z,31.95
2022-11-29T03:11:42.231Z,32.53
2022-11-29T03:12:04.064Z,33.88
2022-11-29T03:12:29.438Z,32.45
2022-11-29T03:12:46.430Z,32.92
2022-11-29T03:13:00.237Z,33.92
2022-11-29T03:13:21.408Z,33.28
2022-11-29T03:13:45.771Z,33.35
2022-11-29T03:14:14.661Z,32.85
2022-11-29T03:14:31.180Z,32.88
2022-11-29T03:14:55.440Z,33.13
2022-11-29T03:15:22.728Z,33.85
2022-11-29T03:15:41.766Z,33.28
2022-11-29T03:16:03.173Z,32.33
2022-11-29T03:16:29.903Z,31.33
2022-11-29T03:16:51.158Z,33.03
2022-11-29T03:17:13.982Z,33.40
2022-11-29T03:17:40.802Z,34.40
2022-11-29T03:18:03.753Z,33.67
2022-11-29T03:18:33.539Z,33.08
2022-11-29T03:19:00.162Z,33.30
2022-11-29T03:19:41.220Z,33.15
2022-11-29T03:20:07.978Z,33.47
2022-11-29T03:20:28.687Z,33.60
2022-11-29T03:20:55.661Z,33.33
2022-11-29T03:21:18.290Z,32.75
2022-11-29T03:21:41.991Z,32.97
2022-11-29T03:22:05.667Z,34.28
2022-11-29T03:22:29.657Z,33.53
2022-11-29T03:22:47.238Z,33.20
2022-11-29T03:23:14.237Z,33.28
2022-11-29T03:23:34.931Z,33.95
2022-11-29T03:23:50.578Z,33.05
2022-11-29T03:24:09.419Z,33.40
2022-11-29T03:24:28.895Z,33.90
2022-11-29T03:24:48.217Z,34.22
2022-11-29T03:25:06.534Z,33.78
2022-11-29T03:25:28.919Z,34.67
2022-11-29T03:25:46.175Z,34.47
2022-11-29T03:26:05.063Z,34.03
2022-11-29T03:26:21.395Z,33.33
2022-11-29T03:26:40.196Z,33.25
2022-11-29T03:27:00.617Z,33.63
2022-11-29T03:27:21.325Z,33.50
2022-11-29T03:27:41.012Z,33.13
2022-11-29T03:28:06.576Z,33.55
2022-11-29T03:28:23.479Z,32.90
2022-11-29T03:28:42.582Z,33.17
2022-11-29T03:29:07.109Z,34.72
2022-11-29T03:29:27.027Z,35.10
2022-11-29T03:29:46.891Z,34.33
2022-11-29T03:30:03.515Z,33.30
2022-11-29T03:30:19.229Z,33.90
2022-11-29T03:30:34.541Z,33.97
2022-11-29T03:30:54.490Z,34.17
2022-11-29T03:31:14.970Z,34.28
2022-11-29T03:31:34.335Z,35.72
2022-11-29T03:31:53.079Z,34.70
2022-11-29T03:32:12.656Z,34.10
2022-11-29T03:32:31.243Z,33.40
2022-11-29T03:32:52.360Z,34.10
2022-11-29T03:33:13.105Z,34.45
2022-11-29T03:33:36.921Z,33.85
2022-11-29T03:34:00.205Z,34.28
2022-11-29T03:34:20.852Z,34.58
2022-11-29T03:34:54.316Z,34.78
2022-11-29T03:35:17.008Z,33.58
2022-11-29T03:35:37.687Z,33.72
2022-11-29T03:35:56.971Z,33.80
2022-11-29T03:36:18.127Z,34.53